sensor_id;sensor_type;location;lat;lon;timestamp;temperature;humidity
51982;DHT22;37998;53.416;6.730;2023-04-09T00:00:37;9.50;99.90
51982;DHT22;37998;53.416;6.730;2023-04-09T00:03:03;9.50;99.90
51982;DHT22;37998;53.416;6.730;2023-04-09T00:05:28;9.50;99.90
51982;DHT22;37998;53.416;6.730;2023-04-09T00:07:54;9.40;99.90
51982;DHT22;37998;53.416;6.730;2023-04-09T00:10:20;9.40;99.90
51982;DHT22;37998;53.416;6.730;2023-04-09T00:12:46;9.40;99.90
51982;DHT22;37998;53.416;6.730;2023-04-09T00:15:12;9.40;99.90
51982;DHT22;37998;53.416;6.730;2023-04-09T00:17:37;9.30;99.90
51982;DHT22;37998;53.416;6.730;2023-04-09T00:20:03;9.30;99.90
51982;DHT22;37998;53.416;6.730;2023-04-09T00:22:29;9.30;99.90
51982;DHT22;37998;53.416;6.730;2023-04-09T00:24:55;9.30;99.90
51982;DHT22;37998;53.416;6.730;2023-04-09T00:27:22;9.30;99.90
51982;DHT22;37998;53.416;6.730;2023-04-09T00:29:47;9.30;99.90
51982;DHT22;37998;53.416;6.730;2023-04-09T00:32:13;9.30;99.90
51982;DHT22;37998;53.416;6.730;2023-04-09T00:34:38;9.30;99.90
51982;DHT22;37998;53.416;6.730;2023-04-09T00:37:05;9.20;99.90
51982;DHT22;37998;53.416;6.730;2023-04-09T00:39:30;9.20;99.90
51982;DHT22;37998;53.416;6.730;2023-04-09T00:41:57;9.20;99.90
51982;DHT22;37998;53.416;6.730;2023-04-09T00:44:23;9.20;99.90
51982;DHT22;37998;53.416;6.730;2023-04-09T00:46:50;9.20;99.90
51982;DHT22;37998;53.416;6.730;2023-04-09T00:49:15;9.20;99.90
51982;DHT22;37998;53.416;6.730;2023-04-09T00:51:42;9.10;99.90
51982;DHT22;37998;53.416;6.730;2023-04-09T00:54:08;9.20;99.90
51982;DHT22;37998;53.416;6.730;2023-04-09T00:56:35;9.20;99.90
51982;DHT22;37998;53.416;6.730;2023-04-09T00:59:01;9.20;99.90
51982;DHT22;37998;53.416;6.730;2023-04-09T01:01:27;9.20;99.90
51982;DHT22;37998;53.416;6.730;2023-04-09T01:03:53;9.20;99.90
51982;DHT22;37998;53.416;6.730;2023-04-09T01:14:53;9.10;99.90
51982;DHT22;37998;53.416;6.730;2023-04-09T01:17:24;9.10;99.90
51982;DHT22;37998;53.416;6.730;2023-04-09T01:23:00;9.10;99.90
51982;DHT22;37998;53.416;6.730;2023-04-09T01:30:33;9.10;99.90
51982;DHT22;37998;53.416;6.730;2023-04-09T01:32:59;9.20;99.90
51982;DHT22;37998;53.416;6.730;2023-04-09T01:35:26;9.10;99.90
51982;DHT22;37998;53.416;6.730;2023-04-09T01:37:53;9.10;99.90
51982;DHT22;37998;53.416;6.730;2023-04-09T01:40:19;9.20;99.90
51982;DHT22;37998;53.416;6.730;2023-04-09T01:42:45;9.10;99.90
51982;DHT22;37998;53.416;6.730;2023-04-09T01:45:13;9.20;99.90
51982;DHT22;37998;53.416;6.730;2023-04-09T01:47:40;9.10;99.90
51982;DHT22;37998;53.416;6.730;2023-04-09T01:50:06;9.10;99.90
51982;DHT22;37998;53.416;6.730;2023-04-09T01:52:32;9.10;99.90
51982;DHT22;37998;53.416;6.730;2023-04-09T01:54:58;9.10;99.90
51982;DHT22;37998;53.416;6.730;2023-04-09T01:57:24;9.10;99.90
51982;DHT22;37998;53.416;6.730;2023-04-09T01:59:49;9.10;99.90
51982;DHT22;37998;53.416;6.730;2023-04-09T02:02:27;9.20;99.90
51982;DHT22;37998;53.416;6.730;2023-04-09T02:04:53;9.20;99.90
51982;DHT22;37998;53.416;6.730;2023-04-09T02:07:32;9.20;99.90
51982;DHT22;37998;53.416;6.730;2023-04-09T02:10:00;9.20;99.90
51982;DHT22;37998;53.416;6.730;2023-04-09T02:12:28;9.20;99.90
51982;DHT22;37998;53.416;6.730;2023-04-09T02:14:56;9.20;99.90
51982;DHT22;37998;53.416;6.730;2023-04-09T02:17:22;9.20;99.90
51982;DHT22;37998;53.416;6.730;2023-04-09T02:19:48;9.10;99.90
51982;DHT22;37998;53.416;6.730;2023-04-09T02:22:15;9.20;99.90
51982;DHT22;37998;53.416;6.730;2023-04-09T02:24:41;9.10;99.90
51982;DHT22;37998;53.416;6.730;2023-04-09T02:27:07;9.10;99.90
51982;DHT22;37998;53.416;6.730;2023-04-09T02:29:33;9.00;99.90
51982;DHT22;37998;53.416;6.730;2023-04-09T02:31:59;9.10;99.90
51982;DHT22;37998;53.416;6.730;2023-04-09T02:34:24;9.00;99.90
51982;DHT22;37998;53.416;6.730;2023-04-09T02:36:50;9.10;99.90
51982;DHT22;37998;53.416;6.730;2023-04-09T02:39:16;9.00;99.90
51982;DHT22;37998;53.416;6.730;2023-04-09T02:41:41;9.00;99.90
51982;DHT22;37998;53.416;6.730;2023-04-09T02:44:08;9.00;99.90
51982;DHT22;37998;53.416;6.730;2023-04-09T02:46:34;9.00;99.90
51982;DHT22;37998;53.416;6.730;2023-04-09T02:48:59;9.00;99.90
51982;DHT22;37998;53.416;6.730;2023-04-09T02:51:25;9.00;99.90
51982;DHT22;37998;53.416;6.730;2023-04-09T02:53:51;9.00;99.90
51982;DHT22;37998;53.416;6.730;2023-04-09T02:56:17;9.00;99.90
51982;DHT22;37998;53.416;6.730;2023-04-09T02:58:43;9.00;99.90
51982;DHT22;37998;53.416;6.730;2023-04-09T03:01:09;9.10;99.90
51982;DHT22;37998;53.416;6.730;2023-04-09T03:03:35;9.00;99.90
51982;DHT22;37998;53.416;6.730;2023-04-09T03:06:03;9.00;99.90
51982;DHT22;37998;53.416;6.730;2023-04-09T03:08:29;9.00;99.90
51982;DHT22;37998;53.416;6.730;2023-04-09T03:10:55;9.00;99.90
51982;DHT22;37998;53.416;6.730;2023-04-09T03:13:20;9.00;99.90
51982;DHT22;37998;53.416;6.730;2023-04-09T03:15:50;9.00;99.90
51982;DHT22;37998;53.416;6.730;2023-04-09T03:18:16;8.90;99.90
51982;DHT22;37998;53.416;6.730;2023-04-09T03:20:41;8.90;99.90
51982;DHT22;37998;53.416;6.730;2023-04-09T03:23:07;9.00;99.90
51982;DHT22;37998;53.416;6.730;2023-04-09T03:25:33;8.90;99.90
51982;DHT22;37998;53.416;6.730;2023-04-09T03:27:58;8.90;99.90
51982;DHT22;37998;53.416;6.730;2023-04-09T03:30:24;8.90;99.90
51982;DHT22;37998;53.416;6.730;2023-04-09T03:32:50;8.90;99.90
51982;DHT22;37998;53.416;6.730;2023-04-09T03:35:15;9.00;99.90
51982;DHT22;37998;53.416;6.730;2023-04-09T03:37:41;9.00;99.90
51982;DHT22;37998;53.416;6.730;2023-04-09T03:40:07;8.90;99.90
51982;DHT22;37998;53.416;6.730;2023-04-09T03:42:33;8.90;99.90
51982;DHT22;37998;53.416;6.730;2023-04-09T03:44:59;8.90;99.90
51982;DHT22;37998;53.416;6.730;2023-04-09T03:47:25;9.00;99.90
51982;DHT22;37998;53.416;6.730;2023-04-09T03:49:50;8.90;99.90
51982;DHT22;37998;53.416;6.730;2023-04-09T03:52:16;9.00;99.90
51982;DHT22;37998;53.416;6.730;2023-04-09T03:54:42;9.00;99.90
51982;DHT22;37998;53.416;6.730;2023-04-09T03:57:08;8.00;99.90
51982;DHT22;37998;53.416;6.730;2023-04-09T03:59:33;9.00;99.90
51982;DHT22;37998;53.416;6.730;2023-04-09T04:01:59;9.00;99.90
51982;DHT22;37998;53.416;6.730;2023-04-09T04:04:24;8.90;99.90
51982;DHT22;37998;53.416;6.730;2023-04-09T04:06:50;8.90;99.90
51982;DHT22;37998;53.416;6.730;2023-04-09T04:09:16;8.90;99.90
51982;DHT22;37998;53.416;6.730;2023-04-09T04:11:41;9.00;99.90
51982;DHT22;37998;53.416;6.730;2023-04-09T04:14:07;9.00;99.90
51982;DHT22;37998;53.416;6.730;2023-04-09T04:16:32;9.00;99.90
51982;DHT22;37998;53.416;6.730;2023-04-09T04:18:58;9.00;99.90
51982;DHT22;37998;53.416;6.730;2023-04-09T04:21:24;9.00;99.90
51982;DHT22;37998;53.416;6.730;2023-04-09T04:23:49;9.00;99.90
51982;DHT22;37998;53.416;6.730;2023-04-09T04:26:15;9.00;99.90
51982;DHT22;37998;53.416;6.730;2023-04-09T04:28:40;9.00;99.90
51982;DHT22;37998;53.416;6.730;2023-04-09T04:31:10;9.00;99.90
51982;DHT22;37998;53.416;6.730;2023-04-09T04:33:38;9.00;99.90
51982;DHT22;37998;53.416;6.730;2023-04-09T04:36:09;9.00;99.90
51982;DHT22;37998;53.416;6.730;2023-04-09T04:38:35;9.00;99.90
51982;DHT22;37998;53.416;6.730;2023-04-09T04:41:01;9.00;99.90
51982;DHT22;37998;53.416;6.730;2023-04-09T04:43:27;9.00;99.90
51982;DHT22;37998;53.416;6.730;2023-04-09T04:45:53;9.00;99.90
51982;DHT22;37998;53.416;6.730;2023-04-09T04:48:19;9.00;99.90
51982;DHT22;37998;53.416;6.730;2023-04-09T04:50:46;9.00;99.90
51982;DHT22;37998;53.416;6.730;2023-04-09T04:53:11;9.00;99.90
51982;DHT22;37998;53.416;6.730;2023-04-09T04:55:37;9.00;99.90
51982;DHT22;37998;53.416;6.730;2023-04-09T04:58:06;9.00;99.90
51982;DHT22;37998;53.416;6.730;2023-04-09T05:00:31;8.90;99.90
51982;DHT22;37998;53.416;6.730;2023-04-09T05:02:57;8.90;99.90
51982;DHT22;37998;53.416;6.730;2023-04-09T05:05:23;8.90;99.90
51982;DHT22;37998;53.416;6.730;2023-04-09T05:07:48;8.80;99.90
51982;DHT22;37998;53.416;6.730;2023-04-09T05:10:14;8.90;99.90
51982;DHT22;37998;53.416;6.730;2023-04-09T05:12:40;8.80;99.90
51982;DHT22;37998;53.416;6.730;2023-04-09T05:15:06;8.90;99.90
51982;DHT22;37998;53.416;6.730;2023-04-09T05:17:32;8.90;99.90
51982;DHT22;37998;53.416;6.730;2023-04-09T05:20:00;8.90;99.90
51982;DHT22;37998;53.416;6.730;2023-04-09T05:22:26;8.80;99.90
51982;DHT22;37998;53.416;6.730;2023-04-09T05:24:51;8.90;99.90
51982;DHT22;37998;53.416;6.730;2023-04-09T05:27:18;8.80;99.90
51982;DHT22;37998;53.416;6.730;2023-04-09T05:29:45;8.80;99.90
51982;DHT22;37998;53.416;6.730;2023-04-09T05:32:10;8.80;99.90
51982;DHT22;37998;53.416;6.730;2023-04-09T05:34:36;8.80;99.90
51982;DHT22;37998;53.416;6.730;2023-04-09T05:37:01;8.90;99.90
51982;DHT22;37998;53.416;6.730;2023-04-09T05:39:27;8.90;99.90
51982;DHT22;37998;53.416;6.730;2023-04-09T05:41:53;8.90;99.90
51982;DHT22;37998;53.416;6.730;2023-04-09T05:44:18;8.90;99.90
51982;DHT22;37998;53.416;6.730;2023-04-09T05:46:44;8.90;99.90
51982;DHT22;37998;53.416;6.730;2023-04-09T05:49:10;8.90;99.90
51982;DHT22;37998;53.416;6.730;2023-04-09T05:51:36;8.90;99.90
51982;DHT22;37998;53.416;6.730;2023-04-09T05:54:02;8.90;99.90
51982;DHT22;37998;53.416;6.730;2023-04-09T05:56:28;8.90;99.90
51982;DHT22;37998;53.416;6.730;2023-04-09T05:58:54;8.90;99.90
51982;DHT22;37998;53.416;6.730;2023-04-09T06:01:19;8.90;99.90
51982;DHT22;37998;53.416;6.730;2023-04-09T06:03:45;8.90;99.90
51982;DHT22;37998;53.416;6.730;2023-04-09T06:06:12;9.00;99.90
51982;DHT22;37998;53.416;6.730;2023-04-09T06:08:37;9.00;99.90
51982;DHT22;37998;53.416;6.730;2023-04-09T06:11:07;9.00;99.90
51982;DHT22;37998;53.416;6.730;2023-04-09T06:13:33;9.00;99.90
51982;DHT22;37998;53.416;6.730;2023-04-09T06:15:58;9.00;99.90
51982;DHT22;37998;53.416;6.730;2023-04-09T06:18:24;9.00;99.90
51982;DHT22;37998;53.416;6.730;2023-04-09T06:20:50;8.90;99.90
51982;DHT22;37998;53.416;6.730;2023-04-09T06:23:25;8.90;99.90
51982;DHT22;37998;53.416;6.730;2023-04-09T06:25:50;8.90;99.90
51982;DHT22;37998;53.416;6.730;2023-04-09T06:28:16;8.90;99.90
51982;DHT22;37998;53.416;6.730;2023-04-09T06:30:42;8.90;99.90
51982;DHT22;37998;53.416;6.730;2023-04-09T06:33:07;8.90;99.90
51982;DHT22;37998;53.416;6.730;2023-04-09T06:35:33;8.90;99.90
51982;DHT22;37998;53.416;6.730;2023-04-09T06:37:59;8.90;99.90
51982;DHT22;37998;53.416;6.730;2023-04-09T06:40:24;8.90;99.90
51982;DHT22;37998;53.416;6.730;2023-04-09T06:42:50;8.90;99.90
51982;DHT22;37998;53.416;6.730;2023-04-09T06:45:16;8.90;99.90
51982;DHT22;37998;53.416;6.730;2023-04-09T06:47:41;8.90;99.90
51982;DHT22;37998;53.416;6.730;2023-04-09T06:50:07;8.90;99.90
51982;DHT22;37998;53.416;6.730;2023-04-09T06:52:33;8.90;99.90
51982;DHT22;37998;53.416;6.730;2023-04-09T06:54:59;8.90;99.90
51982;DHT22;37998;53.416;6.730;2023-04-09T06:57:25;8.90;99.90
51982;DHT22;37998;53.416;6.730;2023-04-09T06:59:51;9.00;99.90
51982;DHT22;37998;53.416;6.730;2023-04-09T07:02:17;9.00;99.90
51982;DHT22;37998;53.416;6.730;2023-04-09T07:04:42;9.00;99.90
51982;DHT22;37998;53.416;6.730;2023-04-09T07:07:08;9.00;99.90
51982;DHT22;37998;53.416;6.730;2023-04-09T07:09:34;9.10;99.90
51982;DHT22;37998;53.416;6.730;2023-04-09T07:11:59;9.00;99.90
51982;DHT22;37998;53.416;6.730;2023-04-09T07:14:25;9.00;99.90
51982;DHT22;37998;53.416;6.730;2023-04-09T07:16:50;9.10;99.90
51982;DHT22;37998;53.416;6.730;2023-04-09T07:19:16;9.10;99.90
51982;DHT22;37998;53.416;6.730;2023-04-09T07:21:42;9.20;99.90
51982;DHT22;37998;53.416;6.730;2023-04-09T07:24:08;9.20;99.90
51982;DHT22;37998;53.416;6.730;2023-04-09T07:26:33;9.30;99.90
51982;DHT22;37998;53.416;6.730;2023-04-09T07:28:59;9.30;99.90
51982;DHT22;37998;53.416;6.730;2023-04-09T07:31:25;9.30;99.90
51982;DHT22;37998;53.416;6.730;2023-04-09T07:33:51;9.40;99.90
51982;DHT22;37998;53.416;6.730;2023-04-09T07:36:17;9.30;99.90
51982;DHT22;37998;53.416;6.730;2023-04-09T07:38:42;9.40;99.90
51982;DHT22;37998;53.416;6.730;2023-04-09T07:41:11;9.40;99.90
51982;DHT22;37998;53.416;6.730;2023-04-09T07:43:37;9.40;99.90
51982;DHT22;37998;53.416;6.730;2023-04-09T07:46:03;9.40;99.90
51982;DHT22;37998;53.416;6.730;2023-04-09T07:48:28;9.40;99.90
51982;DHT22;37998;53.416;6.730;2023-04-09T07:50:54;9.50;99.90
51982;DHT22;37998;53.416;6.730;2023-04-09T07:53:20;9.50;99.90
51982;DHT22;37998;53.416;6.730;2023-04-09T07:55:45;9.60;99.90
51982;DHT22;37998;53.416;6.730;2023-04-09T07:58:11;9.50;99.90
51982;DHT22;37998;53.416;6.730;2023-04-09T08:00:37;9.50;99.90
51982;DHT22;37998;53.416;6.730;2023-04-09T08:03:02;9.60;99.90
51982;DHT22;37998;53.416;6.730;2023-04-09T08:05:28;9.70;99.90
51982;DHT22;37998;53.416;6.730;2023-04-09T08:07:55;9.70;99.90
51982;DHT22;37998;53.416;6.730;2023-04-09T08:10:20;9.70;99.90
51982;DHT22;37998;53.416;6.730;2023-04-09T08:12:47;9.70;99.90
51982;DHT22;37998;53.416;6.730;2023-04-09T08:15:13;9.70;99.90
51982;DHT22;37998;53.416;6.730;2023-04-09T08:17:39;9.80;99.90
51982;DHT22;37998;53.416;6.730;2023-04-09T08:20:05;9.80;99.90
51982;DHT22;37998;53.416;6.730;2023-04-09T08:22:31;9.70;99.90
51982;DHT22;37998;53.416;6.730;2023-04-09T08:24:57;9.70;99.90
51982;DHT22;37998;53.416;6.730;2023-04-09T08:27:23;9.80;99.90
51982;DHT22;37998;53.416;6.730;2023-04-09T08:29:49;9.80;99.90
51982;DHT22;37998;53.416;6.730;2023-04-09T08:32:14;9.90;99.90
51982;DHT22;37998;53.416;6.730;2023-04-09T08:34:40;9.90;99.90
51982;DHT22;37998;53.416;6.730;2023-04-09T08:37:06;10.00;99.90
51982;DHT22;37998;53.416;6.730;2023-04-09T08:39:32;9.90;99.90
51982;DHT22;37998;53.416;6.730;2023-04-09T08:41:59;9.90;99.90
51982;DHT22;37998;53.416;6.730;2023-04-09T08:44:28;9.90;99.90
51982;DHT22;37998;53.416;6.730;2023-04-09T08:46:55;9.90;99.90
51982;DHT22;37998;53.416;6.730;2023-04-09T08:49:21;9.90;99.90
51982;DHT22;37998;53.416;6.730;2023-04-09T08:51:47;9.90;99.90
51982;DHT22;37998;53.416;6.730;2023-04-09T08:54:15;9.90;99.90
51982;DHT22;37998;53.416;6.730;2023-04-09T08:56:47;10.00;99.90
51982;DHT22;37998;53.416;6.730;2023-04-09T08:59:16;10.00;99.90
51982;DHT22;37998;53.416;6.730;2023-04-09T09:01:45;9.90;99.90
51982;DHT22;37998;53.416;6.730;2023-04-09T09:04:13;9.90;99.90
51982;DHT22;37998;53.416;6.730;2023-04-09T09:06:40;10.00;99.90
51982;DHT22;37998;53.416;6.730;2023-04-09T09:09:10;9.90;99.90
51982;DHT22;37998;53.416;6.730;2023-04-09T09:11:37;9.90;99.90
51982;DHT22;37998;53.416;6.730;2023-04-09T09:14:05;10.00;99.90
51982;DHT22;37998;53.416;6.730;2023-04-09T09:16:32;10.00;99.90
51982;DHT22;37998;53.416;6.730;2023-04-09T09:19:02;10.00;99.90
51982;DHT22;37998;53.416;6.730;2023-04-09T09:21:28;10.00;99.90
51982;DHT22;37998;53.416;6.730;2023-04-09T09:23:54;10.10;99.90
51982;DHT22;37998;53.416;6.730;2023-04-09T09:26:23;10.00;99.90
51982;DHT22;37998;53.416;6.730;2023-04-09T09:28:50;10.10;99.90
51982;DHT22;37998;53.416;6.730;2023-04-09T09:31:20;10.10;99.90
51982;DHT22;37998;53.416;6.730;2023-04-09T09:33:46;10.20;99.90
51982;DHT22;37998;53.416;6.730;2023-04-09T09:36:14;10.30;99.90
51982;DHT22;37998;53.416;6.730;2023-04-09T09:38:54;10.50;99.90
51982;DHT22;37998;53.416;6.730;2023-04-09T09:41:20;10.70;99.90
51982;DHT22;37998;53.416;6.730;2023-04-09T09:43:46;10.60;99.90
51982;DHT22;37998;53.416;6.730;2023-04-09T09:46:12;10.70;99.90
51982;DHT22;37998;53.416;6.730;2023-04-09T09:48:39;10.80;99.90
51982;DHT22;37998;53.416;6.730;2023-04-09T09:51:09;10.80;99.90
51982;DHT22;37998;53.416;6.730;2023-04-09T09:53:36;10.90;99.90
51982;DHT22;37998;53.416;6.730;2023-04-09T09:56:06;10.90;99.90
51982;DHT22;37998;53.416;6.730;2023-04-09T09:58:40;10.90;99.90
51982;DHT22;37998;53.416;6.730;2023-04-09T10:01:11;10.80;99.90
51982;DHT22;37998;53.416;6.730;2023-04-09T10:03:38;10.90;99.90
51982;DHT22;37998;53.416;6.730;2023-04-09T10:06:07;10.90;99.90
51982;DHT22;37998;53.416;6.730;2023-04-09T10:08:35;11.00;99.90
51982;DHT22;37998;53.416;6.730;2023-04-09T10:11:04;11.00;99.90
51982;DHT22;37998;53.416;6.730;2023-04-09T10:13:40;11.00;99.90
51982;DHT22;37998;53.416;6.730;2023-04-09T10:16:08;11.00;99.90
51982;DHT22;37998;53.416;6.730;2023-04-09T10:18:34;11.00;99.90
51982;DHT22;37998;53.416;6.730;2023-04-09T10:24:03;11.10;99.90
51982;DHT22;37998;53.416;6.730;2023-04-09T10:26:33;11.10;99.90
51982;DHT22;37998;53.416;6.730;2023-04-09T10:29:07;11.20;99.90
51982;DHT22;37998;53.416;6.730;2023-04-09T10:34:16;11.40;99.90
51982;DHT22;37998;53.416;6.730;2023-04-09T10:36:43;11.40;99.90
51982;DHT22;37998;53.416;6.730;2023-04-09T10:39:12;11.40;99.90
51982;DHT22;37998;53.416;6.730;2023-04-09T10:41:39;11.40;99.90
51982;DHT22;37998;53.416;6.730;2023-04-09T10:44:13;11.50;99.90
51982;DHT22;37998;53.416;6.730;2023-04-09T10:46:44;11.50;99.90
51982;DHT22;37998;53.416;6.730;2023-04-09T10:49:14;11.60;99.90
51982;DHT22;37998;53.416;6.730;2023-04-09T10:51:41;11.60;99.90
51982;DHT22;37998;53.416;6.730;2023-04-09T10:59:44;11.70;99.90
51982;DHT22;37998;53.416;6.730;2023-04-09T11:02:34;11.80;99.90
51982;DHT22;37998;53.416;6.730;2023-04-09T11:07:53;12.10;99.90
51982;DHT22;37998;53.416;6.730;2023-04-09T11:10:20;12.10;99.90
51982;DHT22;37998;53.416;6.730;2023-04-09T11:12:47;12.20;99.90
51982;DHT22;37998;53.416;6.730;2023-04-09T11:15:17;12.20;99.90
51982;DHT22;37998;53.416;6.730;2023-04-09T11:17:43;12.30;99.90
51982;DHT22;37998;53.416;6.730;2023-04-09T11:20:10;12.50;99.90
51982;DHT22;37998;53.416;6.730;2023-04-09T11:22:37;12.70;99.90
51982;DHT22;37998;53.416;6.730;2023-04-09T11:25:03;12.80;99.90
51982;DHT22;37998;53.416;6.730;2023-04-09T11:27:28;13.00;99.90
51982;DHT22;37998;53.416;6.730;2023-04-09T11:29:57;13.20;99.90
51982;DHT22;37998;53.416;6.730;2023-04-09T11:32:29;13.30;99.90
51982;DHT22;37998;53.416;6.730;2023-04-09T11:34:54;13.30;99.90
51982;DHT22;37998;53.416;6.730;2023-04-09T11:37:21;13.40;99.90
51982;DHT22;37998;53.416;6.730;2023-04-09T11:39:47;13.30;99.90
51982;DHT22;37998;53.416;6.730;2023-04-09T11:42:14;13.40;99.90
51982;DHT22;37998;53.416;6.730;2023-04-09T11:44:39;13.30;99.90
51982;DHT22;37998;53.416;6.730;2023-04-09T11:47:07;13.40;99.90
51982;DHT22;37998;53.416;6.730;2023-04-09T11:49:33;13.40;99.90
51982;DHT22;37998;53.416;6.730;2023-04-09T11:51:59;13.40;99.90
51982;DHT22;37998;53.416;6.730;2023-04-09T11:54:33;13.50;99.90
51982;DHT22;37998;53.416;6.730;2023-04-09T11:56:59;13.50;99.90
51982;DHT22;37998;53.416;6.730;2023-04-09T11:59:26;13.50;99.90
51982;DHT22;37998;53.416;6.730;2023-04-09T12:01:52;13.60;99.90
51982;DHT22;37998;53.416;6.730;2023-04-09T12:04:21;13.60;99.90
51982;DHT22;37998;53.416;6.730;2023-04-09T12:06:47;13.60;99.90
51982;DHT22;37998;53.416;6.730;2023-04-09T12:09:13;13.50;99.90
51982;DHT22;37998;53.416;6.730;2023-04-09T12:11:42;13.60;99.90
51982;DHT22;37998;53.416;6.730;2023-04-09T12:14:12;13.70;99.90
51982;DHT22;37998;53.416;6.730;2023-04-09T12:16:38;13.80;99.90
51982;DHT22;37998;53.416;6.730;2023-04-09T12:19:07;13.80;99.90
51982;DHT22;37998;53.416;6.730;2023-04-09T12:21:52;13.90;99.90
51982;DHT22;37998;53.416;6.730;2023-04-09T12:24:24;14.00;99.90
51982;DHT22;37998;53.416;6.730;2023-04-09T12:26:50;14.10;99.90
51982;DHT22;37998;53.416;6.730;2023-04-09T12:29:18;14.20;99.90
51982;DHT22;37998;53.416;6.730;2023-04-09T12:31:45;14.20;99.90
51982;DHT22;37998;53.416;6.730;2023-04-09T12:34:11;14.30;99.90
51982;DHT22;37998;53.416;6.730;2023-04-09T12:36:38;14.30;99.90
51982;DHT22;37998;53.416;6.730;2023-04-09T12:39:06;14.20;99.90
51982;DHT22;37998;53.416;6.730;2023-04-09T12:41:31;14.30;99.90
51982;DHT22;37998;53.416;6.730;2023-04-09T12:43:57;14.40;99.90
51982;DHT22;37998;53.416;6.730;2023-04-09T12:46:23;14.50;99.90
51982;DHT22;37998;53.416;6.730;2023-04-09T12:48:48;14.40;99.90
51982;DHT22;37998;53.416;6.730;2023-04-09T12:51:14;14.30;99.90
51982;DHT22;37998;53.416;6.730;2023-04-09T12:53:41;14.40;99.90
51982;DHT22;37998;53.416;6.730;2023-04-09T12:56:07;14.50;99.90
51982;DHT22;37998;53.416;6.730;2023-04-09T12:58:32;14.50;99.90
51982;DHT22;37998;53.416;6.730;2023-04-09T13:00:58;14.50;99.90
51982;DHT22;37998;53.416;6.730;2023-04-09T13:03:24;14.50;99.90
51982;DHT22;37998;53.416;6.730;2023-04-09T13:05:50;14.70;99.90
51982;DHT22;37998;53.416;6.730;2023-04-09T13:08:16;14.80;99.90
51982;DHT22;37998;53.416;6.730;2023-04-09T13:10:42;14.90;99.90
51982;DHT22;37998;53.416;6.730;2023-04-09T13:13:08;14.80;99.90
51982;DHT22;37998;53.416;6.730;2023-04-09T13:15:41;14.90;99.90
51982;DHT22;37998;53.416;6.730;2023-04-09T13:18:10;14.70;99.90
51982;DHT22;37998;53.416;6.730;2023-04-09T13:20:36;14.70;99.90
51982;DHT22;37998;53.416;6.730;2023-04-09T13:23:02;14.60;99.90
51982;DHT22;37998;53.416;6.730;2023-04-09T13:25:28;14.60;99.90
51982;DHT22;37998;53.416;6.730;2023-04-09T13:27:54;14.70;99.90
51982;DHT22;37998;53.416;6.730;2023-04-09T13:30:21;14.70;99.90
51982;DHT22;37998;53.416;6.730;2023-04-09T13:32:47;14.70;99.90
51982;DHT22;37998;53.416;6.730;2023-04-09T13:35:13;14.60;99.90
51982;DHT22;37998;53.416;6.730;2023-04-09T13:37:38;14.60;99.90
51982;DHT22;37998;53.416;6.730;2023-04-09T13:40:05;14.60;99.90
51982;DHT22;37998;53.416;6.730;2023-04-09T13:42:31;14.60;99.90
51982;DHT22;37998;53.416;6.730;2023-04-09T13:44:56;14.60;99.90
51982;DHT22;37998;53.416;6.730;2023-04-09T13:47:23;14.60;99.90
51982;DHT22;37998;53.416;6.730;2023-04-09T13:49:48;14.50;99.90
51982;DHT22;37998;53.416;6.730;2023-04-09T13:52:16;14.50;99.90
51982;DHT22;37998;53.416;6.730;2023-04-09T13:54:41;14.50;99.90
51982;DHT22;37998;53.416;6.730;2023-04-09T13:57:07;14.50;99.90
51982;DHT22;37998;53.416;6.730;2023-04-09T13:59:33;14.50;99.90
51982;DHT22;37998;53.416;6.730;2023-04-09T14:01:58;14.50;99.90
51982;DHT22;37998;53.416;6.730;2023-04-09T14:04:24;14.50;99.90
51982;DHT22;37998;53.416;6.730;2023-04-09T14:06:50;14.40;99.90
51982;DHT22;37998;53.416;6.730;2023-04-09T14:09:15;14.50;99.90
51982;DHT22;37998;53.416;6.730;2023-04-09T14:11:41;14.60;99.90
51982;DHT22;37998;53.416;6.730;2023-04-09T14:14:07;14.60;99.90
51982;DHT22;37998;53.416;6.730;2023-04-09T14:16:32;14.70;99.90
51982;DHT22;37998;53.416;6.730;2023-04-09T14:18:58;14.80;99.90
51982;DHT22;37998;53.416;6.730;2023-04-09T14:21:24;14.90;99.90
51982;DHT22;37998;53.416;6.730;2023-04-09T14:23:51;15.00;99.90
51982;DHT22;37998;53.416;6.730;2023-04-09T14:26:17;15.10;99.90
51982;DHT22;37998;53.416;6.730;2023-04-09T14:28:43;15.10;99.90
51982;DHT22;37998;53.416;6.730;2023-04-09T14:31:11;15.10;99.90
51982;DHT22;37998;53.416;6.730;2023-04-09T14:33:39;15.20;99.90
51982;DHT22;37998;53.416;6.730;2023-04-09T14:36:05;15.20;99.90
51982;DHT22;37998;53.416;6.730;2023-04-09T14:38:32;15.20;99.90
51982;DHT22;37998;53.416;6.730;2023-04-09T14:40:58;15.20;99.90
51982;DHT22;37998;53.416;6.730;2023-04-09T14:43:23;15.10;99.90
51982;DHT22;37998;53.416;6.730;2023-04-09T14:45:49;15.20;99.70
51982;DHT22;37998;53.416;6.730;2023-04-09T14:48:16;15.30;99.10
51982;DHT22;37998;53.416;6.730;2023-04-09T14:50:42;15.40;98.80
51982;DHT22;37998;53.416;6.730;2023-04-09T14:53:08;15.50;98.40
51982;DHT22;37998;53.416;6.730;2023-04-09T14:55:34;15.50;98.10
51982;DHT22;37998;53.416;6.730;2023-04-09T14:58:00;15.50;98.20
51982;DHT22;37998;53.416;6.730;2023-04-09T15:00:28;15.50;98.20
51982;DHT22;37998;53.416;6.730;2023-04-09T15:02:54;15.40;97.40
51982;DHT22;37998;53.416;6.730;2023-04-09T15:05:20;15.40;97.20
51982;DHT22;37998;53.416;6.730;2023-04-09T15:07:46;15.50;96.90
51982;DHT22;37998;53.416;6.730;2023-04-09T15:10:12;15.50;96.80
51982;DHT22;37998;53.416;6.730;2023-04-09T15:12:38;15.50;96.80
51982;DHT22;37998;53.416;6.730;2023-04-09T15:15:05;15.50;96.70
51982;DHT22;37998;53.416;6.730;2023-04-09T15:17:31;15.50;96.70
51982;DHT22;37998;53.416;6.730;2023-04-09T15:19:57;15.50;96.50
51982;DHT22;37998;53.416;6.730;2023-04-09T15:22:23;15.50;96.50
51982;DHT22;37998;53.416;6.730;2023-04-09T15:24:49;15.40;96.70
51982;DHT22;37998;53.416;6.730;2023-04-09T15:27:16;15.50;96.80
51982;DHT22;37998;53.416;6.730;2023-04-09T15:29:42;15.40;96.60
51982;DHT22;37998;53.416;6.730;2023-04-09T15:32:08;15.40;96.60
51982;DHT22;37998;53.416;6.730;2023-04-09T15:34:33;15.30;96.60
51982;DHT22;37998;53.416;6.730;2023-04-09T15:36:59;15.20;96.60
51982;DHT22;37998;53.416;6.730;2023-04-09T15:39:25;15.10;96.60
51982;DHT22;37998;53.416;6.730;2023-04-09T15:41:53;15.10;96.60
51982;DHT22;37998;53.416;6.730;2023-04-09T15:44:21;15.00;96.30
51982;DHT22;37998;53.416;6.730;2023-04-09T15:46:46;15.10;96.50
51982;DHT22;37998;53.416;6.730;2023-04-09T15:49:12;15.00;96.30
51982;DHT22;37998;53.416;6.730;2023-04-09T15:51:37;15.00;96.70
51982;DHT22;37998;53.416;6.730;2023-04-09T15:54:03;15.00;96.50
51982;DHT22;37998;53.416;6.730;2023-04-09T15:56:29;15.00;96.40
51982;DHT22;37998;53.416;6.730;2023-04-09T15:58:54;14.90;96.80
51982;DHT22;37998;53.416;6.730;2023-04-09T16:01:20;14.90;96.90
51982;DHT22;37998;53.416;6.730;2023-04-09T16:03:46;15.00;96.70
51982;DHT22;37998;53.416;6.730;2023-04-09T16:06:17;15.00;96.50